sensor_id;sensor_type;location;lat;lon;timestamp;P1;durP1;ratioP1;P2;durP2;ratioP2
67930;SDS011;63902;52.000;5.954;2023-10-09T00:00:10;28.15;;;13.80;;
67930;SDS011;63902;52.000;5.954;2023-10-09T00:01:12;31.98;;;15.57;;
67930;SDS011;63902;52.000;5.954;2023-10-09T00:02:12;35.85;;;14.20;;
67930;SDS011;63902;52.000;5.954;2023-10-09T00:03:13;32.85;;;14.55;;
67930;SDS011;63902;52.000;5.954;2023-10-09T00:04:13;31.27;;;14.15;;
67930;SDS011;63902;52.000;5.954;2023-10-09T00:05:14;25.25;;;13.27;;
67930;SDS011;63902;52.000;5.954;2023-10-09T00:06:14;32.22;;;14.77;;
67930;SDS011;63902;52.000;5.954;2023-10-09T00:07:15;32.88;;;14.40;;
67930;SDS011;63902;52.000;5.954;2023-10-09T00:08:15;35.40;;;14.52;;
67930;SDS011;63902;52.000;5.954;2023-10-09T00:09:16;33.78;;;15.07;;
67930;SDS011;63902;52.000;5.954;2023-10-09T00:10:17;28.20;;;14.65;;
67930;SDS011;63902;52.000;5.954;2023-10-09T00:11:17;35.00;;;14.93;;
67930;SDS011;63902;52.000;5.954;2023-10-09T00:23:43;30.70;;;14.20;;
67930;SDS011;63902;52.000;5.954;2023-10-09T00:24:44;35.67;;;15.57;;
67930;SDS011;63902;52.000;5.954;2023-10-09T00:25:48;38.03;;;16.10;;
67930;SDS011;63902;52.000;5.954;2023-10-09T00:26:49;34.58;;;16.08;;
67930;SDS011;63902;52.000;5.954;2023-10-09T00:27:49;30.10;;;14.70;;
67930;SDS011;63902;52.000;5.954;2023-10-09T00:28:50;30.23;;;14.70;;
67930;SDS011;63902;52.000;5.954;2023-10-09T00:29:51;31.58;;;15.57;;
67930;SDS011;63902;52.000;5.954;2023-10-09T00:30:51;38.88;;;16.48;;
67930;SDS011;63902;52.000;5.954;2023-10-09T00:31:52;37.47;;;16.08;;
67930;SDS011;63902;52.000;5.954;2023-10-09T00:32:52;41.13;;;16.27;;
67930;SDS011;63902;52.000;5.954;2023-10-09T00:33:53;39.45;;;17.63;;
67930;SDS011;63902;52.000;5.954;2023-10-09T00:34:53;30.45;;;15.15;;
67930;SDS011;63902;52.000;5.954;2023-10-09T00:35:54;33.10;;;16.25;;
67930;SDS011;63902;52.000;5.954;2023-10-09T00:36:55;40.88;;;16.75;;
67930;SDS011;63902;52.000;5.954;2023-10-09T00:37:55;33.00;;;14.50;;
67930;SDS011;63902;52.000;5.954;2023-10-09T00:38:57;34.00;;;15.38;;
67930;SDS011;63902;52.000;5.954;2023-10-09T00:39:58;34.33;;;14.90;;
67930;SDS011;63902;52.000;5.954;2023-10-09T00:40:58;36.10;;;15.27;;
67930;SDS011;63902;52.000;5.954;2023-10-09T00:41:59;31.25;;;15.25;;
67930;SDS011;63902;52.000;5.954;2023-10-09T00:43:00;31.38;;;14.32;;
67930;SDS011;63902;52.000;5.954;2023-10-09T00:44:00;33.60;;;14.63;;
67930;SDS011;63902;52.000;5.954;2023-10-09T00:45:01;33.13;;;15.40;;
67930;SDS011;63902;52.000;5.954;2023-10-09T00:46:01;29.60;;;13.70;;
67930;SDS011;63902;52.000;5.954;2023-10-09T00:47:03;34.13;;;15.90;;
67930;SDS011;63902;52.000;5.954;2023-10-09T00:48:05;27.73;;;14.00;;
67930;SDS011;63902;52.000;5.954;2023-10-09T00:49:06;32.80;;;13.98;;
67930;SDS011;63902;52.000;5.954;2023-10-09T00:50:07;34.58;;;14.30;;
67930;SDS011;63902;52.000;5.954;2023-10-09T00:51:08;31.77;;;14.70;;
67930;SDS011;63902;52.000;5.954;2023-10-09T00:52:09;27.92;;;14.20;;
67930;SDS011;63902;52.000;5.954;2023-10-09T00:53:10;31.00;;;14.80;;
67930;SDS011;63902;52.000;5.954;2023-10-09T00:54:12;33.65;;;14.80;;
67930;SDS011;63902;52.000;5.954;2023-10-09T00:55:13;31.70;;;14.32;;
67930;SDS011;63902;52.000;5.954;2023-10-09T00:56:13;30.55;;;15.32;;
67930;SDS011;63902;52.000;5.954;2023-10-09T00:57:14;34.78;;;14.70;;
67930;SDS011;63902;52.000;5.954;2023-10-09T00:58:15;34.38;;;14.63;;
67930;SDS011;63902;52.000;5.954;2023-10-09T00:59:16;31.45;;;14.45;;
67930;SDS011;63902;52.000;5.954;2023-10-09T01:00:17;34.45;;;15.07;;
67930;SDS011;63902;52.000;5.954;2023-10-09T01:01:17;29.80;;;14.13;;
67930;SDS011;63902;52.000;5.954;2023-10-09T01:02:18;31.70;;;14.23;;
67930;SDS011;63902;52.000;5.954;2023-10-09T01:03:19;26.80;;;15.23;;
67930;SDS011;63902;52.000;5.954;2023-10-09T01:04:20;31.42;;;14.75;;
67930;SDS011;63902;52.000;5.954;2023-10-09T01:05:20;33.00;;;14.60;;
67930;SDS011;63902;52.000;5.954;2023-10-09T01:06:21;29.73;;;13.88;;
67930;SDS011;63902;52.000;5.954;2023-10-09T01:07:22;33.70;;;14.18;;
67930;SDS011;63902;52.000;5.954;2023-10-09T01:08:23;31.02;;;14.38;;
67930;SDS011;63902;52.000;5.954;2023-10-09T01:09:26;42.65;;;15.00;;
67930;SDS011;63902;52.000;5.954;2023-10-09T01:10:26;27.90;;;13.18;;
67930;SDS011;63902;52.000;5.954;2023-10-09T01:11:27;28.80;;;13.52;;
67930;SDS011;63902;52.000;5.954;2023-10-09T01:12:27;31.58;;;14.27;;
67930;SDS011;63902;52.000;5.954;2023-10-09T01:13:28;34.20;;;14.32;;
67930;SDS011;63902;52.000;5.954;2023-10-09T01:14:29;29.75;;;14.40;;
67930;SDS011;63902;52.000;5.954;2023-10-09T01:15:29;31.55;;;13.52;;
67930;SDS011;63902;52.000;5.954;2023-10-09T01:16:30;31.75;;;13.75;;
67930;SDS011;63902;52.000;5.954;2023-10-09T01:17:31;27.33;;;13.38;;
67930;SDS011;63902;52.000;5.954;2023-10-09T01:18:31;35.22;;;14.85;;
67930;SDS011;63902;52.000;5.954;2023-10-09T01:19:32;30.75;;;13.85;;
67930;SDS011;63902;52.000;5.954;2023-10-09T01:20:32;24.75;;;13.32;;
67930;SDS011;63902;52.000;5.954;2023-10-09T01:21:33;30.13;;;14.45;;
67930;SDS011;63902;52.000;5.954;2023-10-09T01:22:33;29.63;;;13.60;;
67930;SDS011;63902;52.000;5.954;2023-10-09T01:23:35;29.73;;;14.13;;
67930;SDS011;63902;52.000;5.954;2023-10-09T01:24:35;28.45;;;14.98;;
67930;SDS011;63902;52.000;5.954;2023-10-09T01:25:36;31.85;;;15.32;;
67930;SDS011;63902;52.000;5.954;2023-10-09T01:26:37;24.00;;;13.90;;
67930;SDS011;63902;52.000;5.954;2023-10-09T01:27:39;35.80;;;14.88;;
67930;SDS011;63902;52.000;5.954;2023-10-09T01:28:39;25.17;;;13.20;;
67930;SDS011;63902;52.000;5.954;2023-10-09T01:29:40;28.23;;;13.65;;
67930;SDS011;63902;52.000;5.954;2023-10-09T01:30:42;32.90;;;14.30;;
67930;SDS011;63902;52.000;5.954;2023-10-09T01:31:43;25.35;;;13.68;;
67930;SDS011;63902;52.000;5.954;2023-10-09T01:32:44;29.30;;;13.65;;
67930;SDS011;63902;52.000;5.954;2023-10-09T01:33:45;28.35;;;13.75;;
67930;SDS011;63902;52.000;5.954;2023-10-09T01:34:45;27.27;;;14.40;;
67930;SDS011;63902;52.000;5.954;2023-10-09T01:35:46;28.10;;;13.65;;
67930;SDS011;63902;52.000;5.954;2023-10-09T01:36:46;34.70;;;14.68;;
67930;SDS011;63902;52.000;5.954;2023-10-09T01:37:47;33.30;;;13.23;;
67930;SDS011;63902;52.000;5.954;2023-10-09T01:38:49;31.13;;;14.50;;
67930;SDS011;63902;52.000;5.954;2023-10-09T01:39:50;33.60;;;14.45;;
67930;SDS011;63902;52.000;5.954;2023-10-09T01:40:51;28.77;;;13.80;;
67930;SDS011;63902;52.000;5.954;2023-10-09T01:41:52;26.45;;;14.32;;
67930;SDS011;63902;52.000;5.954;2023-10-09T01:42:53;31.25;;;14.30;;
67930;SDS011;63902;52.000;5.954;2023-10-09T01:43:53;29.38;;;14.05;;
67930;SDS011;63902;52.000;5.954;2023-10-09T01:44:54;32.17;;;13.43;;
67930;SDS011;63902;52.000;5.954;2023-10-09T01:45:54;35.45;;;14.93;;
67930;SDS011;63902;52.000;5.954;2023-10-09T01:46:55;28.75;;;14.15;;
67930;SDS011;63902;52.000;5.954;2023-10-09T01:47:56;32.17;;;15.38;;
67930;SDS011;63902;52.000;5.954;2023-10-09T01:48:56;29.20;;;13.38;;
67930;SDS011;63902;52.000;5.954;2023-10-09T01:49:57;26.75;;;13.95;;
67930;SDS011;63902;52.000;5.954;2023-10-09T01:50:57;28.23;;;14.05;;
67930;SDS011;63902;52.000;5.954;2023-10-09T01:51:58;31.25;;;14.75;;
67930;SDS011;63902;52.000;5.954;2023-10-09T01:52:58;31.75;;;14.57;;
67930;SDS011;63902;52.000;5.954;2023-10-09T01:54:00;30.42;;;14.98;;
67930;SDS011;63902;52.000;5.954;2023-10-09T01:55:01;26.40;;;13.02;;
67930;SDS011;63902;52.000;5.954;2023-10-09T01:56:08;28.17;;;13.75;;
67930;SDS011;63902;52.000;5.954;2023-10-09T01:57:09;33.40;;;14.32;;
67930;SDS011;63902;52.000;5.954;2023-10-09T01:58:09;30.70;;;14.48;;
67930;SDS011;63902;52.000;5.954;2023-10-09T01:59:10;28.40;;;13.00;;
67930;SDS011;63902;52.000;5.954;2023-10-09T02:00:11;27.67;;;13.20;;
67930;SDS011;63902;52.000;5.954;2023-10-09T02:01:12;31.75;;;15.15;;
67930;SDS011;63902;52.000;5.954;2023-10-09T02:02:13;28.33;;;13.82;;
67930;SDS011;63902;52.000;5.954;2023-10-09T02:03:14;30.77;;;12.90;;
67930;SDS011;63902;52.000;5.954;2023-10-09T02:04:14;22.95;;;13.82;;
67930;SDS011;63902;52.000;5.954;2023-10-09T02:05:15;30.30;;;14.00;;
67930;SDS011;63902;52.000;5.954;2023-10-09T02:06:16;25.50;;;12.93;;
67930;SDS011;63902;52.000;5.954;2023-10-09T02:07:16;24.40;;;12.65;;
67930;SDS011;63902;52.000;5.954;2023-10-09T02:08:17;28.80;;;14.88;;
67930;SDS011;63902;52.000;5.954;2023-10-09T02:09:19;27.42;;;12.25;;
67930;SDS011;63902;52.000;5.954;2023-10-09T02:10:20;26.02;;;13.40;;
67930;SDS011;63902;52.000;5.954;2023-10-09T02:11:21;29.95;;;12.70;;
67930;SDS011;63902;52.000;5.954;2023-10-09T02:12:22;22.88;;;12.52;;
67930;SDS011;63902;52.000;5.954;2023-10-09T02:13:23;29.15;;;12.95;;
67930;SDS011;63902;52.000;5.954;2023-10-09T02:14:23;27.35;;;12.90;;
67930;SDS011;63902;52.000;5.954;2023-10-09T02:15:24;25.17;;;12.30;;
67930;SDS011;63902;52.000;5.954;2023-10-09T02:16:25;29.27;;;11.95;;
67930;SDS011;63902;52.000;5.954;2023-10-09T02:17:26;22.67;;;12.40;;
67930;SDS011;63902;52.000;5.954;2023-10-09T02:18:26;23.13;;;11.77;;
67930;SDS011;63902;52.000;5.954;2023-10-09T02:19:27;27.15;;;12.77;;
67930;SDS011;63902;52.000;5.954;2023-10-09T02:20:28;25.05;;;12.52;;
67930;SDS011;63902;52.000;5.954;2023-10-09T02:21:29;26.80;;;13.65;;
67930;SDS011;63902;52.000;5.954;2023-10-09T02:22:29;25.67;;;12.75;;
67930;SDS011;63902;52.000;5.954;2023-10-09T02:23:31;22.38;;;11.90;;
67930;SDS011;63902;52.000;5.954;2023-10-09T02:24:34;28.52;;;12.88;;
67930;SDS011;63902;52.000;5.954;2023-10-09T02:25:34;27.45;;;14.10;;
67930;SDS011;63902;52.000;5.954;2023-10-09T02:26:35;24.85;;;12.38;;
67930;SDS011;63902;52.000;5.954;2023-10-09T02:27:35;23.70;;;12.40;;
67930;SDS011;63902;52.000;5.954;2023-10-09T02:28:36;25.20;;;13.65;;
67930;SDS011;63902;52.000;5.954;2023-10-09T02:29:36;21.13;;;11.68;;
67930;SDS011;63902;52.000;5.954;2023-10-09T02:30:38;24.15;;;12.00;;
67930;SDS011;63902;52.000;5.954;2023-10-09T02:31:38;25.75;;;12.15;;
67930;SDS011;63902;52.000;5.954;2023-10-09T02:32:39;30.02;;;12.85;;
67930;SDS011;63902;52.000;5.954;2023-10-09T02:33:39;19.13;;;11.57;;
67930;SDS011;63902;52.000;5.954;2023-10-09T02:34:40;22.90;;;12.15;;
67930;SDS011;63902;52.000;5.954;2023-10-09T02:35:40;22.77;;;12.48;;
67930;SDS011;63902;52.000;5.954;2023-10-09T02:36:41;26.63;;;11.90;;
67930;SDS011;63902;52.000;5.954;2023-10-09T02:37:42;22.45;;;12.93;;
67930;SDS011;63902;52.000;5.954;2023-10-09T02:38:42;29.85;;;13.18;;
67930;SDS011;63902;52.000;5.954;2023-10-09T02:39:44;31.02;;;13.45;;
67930;SDS011;63902;52.000;5.954;2023-10-09T02:40:44;22.67;;;12.27;;
67930;SDS011;63902;52.000;5.954;2023-10-09T02:41:45;24.45;;;12.65;;
67930;SDS011;63902;52.000;5.954;2023-10-09T02:42:45;29.83;;;13.95;;
67930;SDS011;63902;52.000;5.954;2023-10-09T02:43:46;25.23;;;12.68;;
67930;SDS011;63902;52.000;5.954;2023-10-09T02:44:46;27.60;;;12.32;;
67930;SDS011;63902;52.000;5.954;2023-10-09T02:45:47;29.42;;;13.65;;
67930;SDS011;63902;52.000;5.954;2023-10-09T02:46:47;28.90;;;14.07;;
67930;SDS011;63902;52.000;5.954;2023-10-09T02:47:48;26.65;;;13.05;;
67930;SDS011;63902;52.000;5.954;2023-10-09T02:48:48;25.58;;;12.43;;
67930;SDS011;63902;52.000;5.954;2023-10-09T02:49:50;25.30;;;13.93;;
67930;SDS011;63902;52.000;5.954;2023-10-09T02:50:50;28.48;;;14.65;;
67930;SDS011;63902;52.000;5.954;2023-10-09T02:51:51;24.30;;;14.02;;
67930;SDS011;63902;52.000;5.954;2023-10-09T02:52:51;28.02;;;13.52;;
67930;SDS011;63902;52.000;5.954;2023-10-09T02:53:52;26.50;;;12.95;;
67930;SDS011;63902;52.000;5.954;2023-10-09T02:54:56;29.77;;;14.52;;
67930;SDS011;63902;52.000;5.954;2023-10-09T02:55:56;25.55;;;14.77;;
67930;SDS011;63902;52.000;5.954;2023-10-09T02:56:57;32.13;;;13.80;;
67930;SDS011;63902;52.000;5.954;2023-10-09T02:57:57;32.47;;;14.75;;
67930;SDS011;63902;52.000;5.954;2023-10-09T02:58:58;27.48;;;14.38;;
67930;SDS011;63902;52.000;5.954;2023-10-09T02:59:58;29.80;;;14.43;;
67930;SDS011;63902;52.000;5.954;2023-10-09T03:00:59;28.65;;;15.25;;
67930;SDS011;63902;52.000;5.954;2023-10-09T03:01:59;29.33;;;14.95;;
67930;SDS011;63902;52.000;5.954;2023-10-09T03:03:00;26.40;;;13.98;;
67930;SDS011;63902;52.000;5.954;2023-10-09T03:04:01;27.40;;;14.95;;
67930;SDS011;63902;52.000;5.954;2023-10-09T03:05:01;29.23;;;15.43;;
67930;SDS011;63902;52.000;5.954;2023-10-09T03:06:03;24.77;;;14.40;;
67930;SDS011;63902;52.000;5.954;2023-10-09T03:07:04;26.83;;;14.45;;
67930;SDS011;63902;52.000;5.954;2023-10-09T03:08:04;30.65;;;14.68;;
67930;SDS011;63902;52.000;5.954;2023-10-09T03:09:05;24.27;;;14.75;;
67930;SDS011;63902;52.000;5.954;2023-10-09T03:10:07;29.15;;;14.50;;
67930;SDS011;63902;52.000;5.954;2023-10-09T03:11:08;27.85;;;15.35;;
67930;SDS011;63902;52.000;5.954;2023-10-09T03:12:08;32.40;;;15.93;;
67930;SDS011;63902;52.000;5.954;2023-10-09T03:13:09;32.65;;;14.73;;
67930;SDS011;63902;52.000;5.954;2023-10-09T03:14:09;30.85;;;14.38;;
67930;SDS011;63902;52.000;5.954;2023-10-09T03:15:10;30.30;;;15.60;;
67930;SDS011;63902;52.000;5.954;2023-10-09T03:16:11;30.20;;;15.82;;
67930;SDS011;63902;52.000;5.954;2023-10-09T03:17:12;25.40;;;14.65;;
67930;SDS011;63902;52.000;5.954;2023-10-09T03:18:12;36.40;;;15.85;;
67930;SDS011;63902;52.000;5.954;2023-10-09T03:19:13;29.42;;;14.60;;
67930;SDS011;63902;52.000;5.954;2023-10-09T03:20:14;30.63;;;14.80;;
67930;SDS011;63902;52.000;5.954;2023-10-09T03:21:15;34.78;;;16.13;;
67930;SDS011;63902;52.000;5.954;2023-10-09T03:22:16;27.92;;;15.15;;
67930;SDS011;63902;52.000;5.954;2023-10-09T03:23:16;28.83;;;15.00;;
67930;SDS011;63902;52.000;5.954;2023-10-09T03:24:17;28.02;;;15.25;;
67930;SDS011;63902;52.000;5.954;2023-10-09T03:25:18;40.35;;;15.80;;
67930;SDS011;63902;52.000;5.954;2023-10-09T03:26:19;34.60;;;16.10;;
67930;SDS011;63902;52.000;5.954;2023-10-09T03:27:20;27.90;;;15.30;;
67930;SDS011;63902;52.000;5.954;2023-10-09T03:28:20;28.52;;;15.70;;
67930;SDS011;63902;52.000;5.954;2023-10-09T03:29:21;29.25;;;15.68;;
67930;SDS011;63902;52.000;5.954;2023-10-09T03:30:21;30.73;;;14.68;;
67930;SDS011;63902;52.000;5.954;2023-10-09T03:31:22;28.13;;;15.90;;
67930;SDS011;63902;52.000;5.954;2023-10-09T03:32:22;29.40;;;15.02;;
67930;SDS011;63902;52.000;5.954;2023-10-09T03:33:23;33.55;;;15.98;;
67930;SDS011;63902;52.000;5.954;2023-10-09T03:34:23;29.48;;;15.98;;
67930;SDS011;63902;52.000;5.954;2023-10-09T03:35:24;24.42;;;14.13;;
67930;SDS011;63902;52.000;5.954;2023-10-09T03:36:24;34.47;;;16.85;;
67930;SDS011;63902;52.000;5.954;2023-10-09T03:37:25;31.67;;;16.25;;
67930;SDS011;63902;52.000;5.954;2023-10-09T03:38:25;37.60;;;15.30;;
67930;SDS011;63902;52.000;5.954;2023-10-09T03:39:26;29.73;;;14.60;;
67930;SDS011;63902;52.000;5.954;2023-10-09T03:40:28;30.40;;;15.70;;
67930;SDS011;63902;52.000;5.954;2023-10-09T03:41:28;29.10;;;14.98;;
67930;SDS011;63902;52.000;5.954;2023-10-09T03:42:29;28.83;;;16.08;;
67930;SDS011;63902;52.000;5.954;2023-10-09T03:43:29;28.77;;;14.13;;
67930;SDS011;63902;52.000;5.954;2023-10-09T03:44:30;32.30;;;15.57;;
67930;SDS011;63902;52.000;5.954;2023-10-09T03:45:30;29.98;;;13.88;;
67930;SDS011;63902;52.000;5.954;2023-10-09T03:46:31;33.38;;;15.55;;
67930;SDS011;63902;52.000;5.954;2023-10-09T03:47:31;27.63;;;15.00;;
67930;SDS011;63902;52.000;5.954;2023-10-09T03:48:31;33.60;;;15.90;;
67930;SDS011;63902;52.000;5.954;2023-10-09T03:49:32;26.15;;;15.07;;
67930;SDS011;63902;52.000;5.954;2023-10-09T03:50:32;31.27;;;15.18;;
67930;SDS011;63902;52.000;5.954;2023-10-09T03:51:33;27.77;;;14.50;;
67930;SDS011;63902;52.000;5.954;2023-10-09T03:52:33;28.35;;;14.82;;
67930;SDS011;63902;52.000;5.954;2023-10-09T03:53:34;29.05;;;14.48;;
67930;SDS011;63902;52.000;5.954;2023-10-09T03:54:35;27.83;;;14.63;;
67930;SDS011;63902;52.000;5.954;2023-10-09T03:55:37;26.25;;;14.73;;
67930;SDS011;63902;52.000;5.954;2023-10-09T03:56:37;33.03;;;15.15;;
67930;SDS011;63902;52.000;5.954;2023-10-09T03:57:38;30.83;;;16.08;;
67930;SDS011;63902;52.000;5.954;2023-10-09T03:58:41;33.85;;;15.85;;
67930;SDS011;63902;52.000;5.954;2023-10-09T03:59:42;27.80;;;15.15;;
67930;SDS011;63902;52.000;5.954;2023-10-09T04:00:42;25.70;;;14.82;;
67930;SDS011;63902;52.000;5.954;2023-10-09T04:01:43;27.27;;;14.30;;
67930;SDS011;63902;52.000;5.954;2023-10-09T04:02:43;33.40;;;14.60;;
67930;SDS011;63902;52.000;5.954;2023-10-09T04:03:44;35.05;;;14.70;;
67930;SDS011;63902;52.000;5.954;2023-10-09T04:04:44;27.30;;;14.77;;
67930;SDS011;63902;52.000;5.954;2023-10-09T04:05:45;29.27;;;13.70;;
67930;SDS011;63902;52.000;5.954;2023-10-09T04:06:46;24.05;;;14.55;;
67930;SDS011;63902;52.000;5.954;2023-10-09T04:07:46;26.95;;;14.27;;
67930;SDS011;63902;52.000;5.954;2023-10-09T04:08:47;21.38;;;14.13;;
67930;SDS011;63902;52.000;5.954;2023-10-09T04:09:47;29.90;;;14.70;;
67930;SDS011;63902;52.000;5.954;2023-10-09T04:10:49;29.55;;;15.38;;
67930;SDS011;63902;52.000;5.954;2023-10-09T04:11:50;32.83;;;14.63;;
67930;SDS011;63902;52.000;5.954;2023-10-09T04:12:51;23.52;;;13.63;;
67930;SDS011;63902;52.000;5.954;2023-10-09T04:13:52;26.05;;;14.75;;
67930;SDS011;63902;52.000;5.954;2023-10-09T04:14:52;24.58;;;14.32;;
67930;SDS011;63902;52.000;5.954;2023-10-09T04:15:53;23.42;;;14.07;;
67930;SDS011;63902;52.000;5.954;2023-10-09T04:16:53;25.08;;;14.07;;
67930;SDS011;63902;52.000;5.954;2023-10-09T04:17:54;27.98;;;12.95;;
67930;SDS011;63902;52.000;5.954;2023-10-09T04:18:54;32.13;;;14.27;;
67930;SDS011;63902;52.000;5.954;2023-10-09T04:19:55;20.50;;;13.43;;
67930;SDS011;63902;52.000;5.954;2023-10-09T04:20:55;26.95;;;13.70;;
67930;SDS011;63902;52.000;5.954;2023-10-09T04:21:56;29.13;;;13.43;;
67930;SDS011;63902;52.000;5.954;2023-10-09T04:22:56;23.33;;;13.43;;
67930;SDS011;63902;52.000;5.954;2023-10-09T04:23:57;24.95;;;13.95;;
67930;SDS011;63902;52.000;5.954;2023-10-09T04:24:57;22.90;;;12.85;;
67930;SDS011;63902;52.000;5.954;2023-10-09T04:25:59;23.25;;;13.13;;
67930;SDS011;63902;52.000;5.954;2023-10-09T04:26:59;20.40;;;12.32;;
67930;SDS011;63902;52.000;5.954;2023-10-09T04:28:00;21.77;;;13.15;;
67930;SDS011;63902;52.000;5.954;2023-10-09T04:29:01;23.90;;;13.40;;
67930;SDS011;63902;52.000;5.954;2023-10-09T04:30:01;25.27;;;13.38;;
67930;SDS011;63902;52.000;5.954;2023-10-09T04:31:02;26.20;;;13.00;;
67930;SDS011;63902;52.000;5.954;2023-10-09T04:32:02;21.35;;;12.55;;
67930;SDS011;63902;52.000;5.954;2023-10-09T04:33:03;21.83;;;12.60;;
67930;SDS011;63902;52.000;5.954;2023-10-09T04:34:04;27.00;;;12.85;;
67930;SDS011;63902;52.000;5.954;2023-10-09T04:35:05;23.10;;;12.20;;
67930;SDS011;63902;52.000;5.954;2023-10-09T04:36:06;23.17;;;12.73;;
67930;SDS011;63902;52.000;5.954;2023-10-09T04:37:08;20.08;;;12.07;;
67930;SDS011;63902;52.000;5.954;2023-10-09T04:38:09;20.13;;;11.73;;
67930;SDS011;63902;52.000;5.954;2023-10-09T04:39:09;23.50;;;12.25;;
67930;SDS011;63902;52.000;5.954;2023-10-09T04:40:09;21.05;;;12.70;;
67930;SDS011;63902;52.000;5.954;2023-10-09T04:41:11;25.23;;;12.90;;
67930;SDS011;63902;52.000;5.954;2023-10-09T04:42:12;20.52;;;12.30;;
67930;SDS011;63902;52.000;5.954;2023-10-09T04:43:13;26.27;;;12.90;;
67930;SDS011;63902;52.000;5.954;2023-10-09T04:44:14;25.38;;;11.75;;
67930;SDS011;63902;52.000;5.954;2023-10-09T04:45:14;22.73;;;12.18;;
67930;SDS011;63902;52.000;5.954;2023-10-09T04:46:15;24.05;;;12.00;;
67930;SDS011;63902;52.000;5.954;2023-10-09T04:47:15;20.42;;;12.05;;
67930;SDS011;63902;52.000;5.954;2023-10-09T04:48:16;22.25;;;12.00;;
67930;SDS011;63902;52.000;5.954;2023-10-09T04:49:16;22.52;;;11.80;;
67930;SDS011;63902;52.000;5.954;2023-10-09T04:50:17;19.70;;;11.35;;
67930;SDS011;63902;52.000;5.954;2023-10-09T04:51:17;16.70;;;11.13;;
67930;SDS011;63902;52.000;5.954;2023-10-09T04:52:18;19.05;;;11.02;;
67930;SDS011;63902;52.000;5.954;2023-10-09T04:53:19;26.50;;;12.07;;
67930;SDS011;63902;52.000;5.954;2023-10-09T04:54:20;20.27;;;11.52;;
67930;SDS011;63902;52.000;5.954;2023-10-09T04:55:20;21.13;;;11.57;;
67930;SDS011;63902;52.000;5.954;2023-10-09T04:56:22;26.13;;;12.00;;
67930;SDS011;63902;52.000;5.954;2023-10-09T04:57:23;19.17;;;11.02;;
67930;SDS011;63902;52.000;5.954;2023-10-09T04:58:24;25.88;;;12.45;;
67930;SDS011;63902;52.000;5.954;2023-10-09T04:59:25;21.60;;;11.95;;
67930;SDS011;63902;52.000;5.954;2023-10-09T05:00:25;23.60;;;11.82;;
67930;SDS011;63902;52.000;5.954;2023-10-09T05:01:26;29.30;;;12.57;;
67930;SDS011;63902;52.000;5.954;2023-10-09T05:02:27;22.45;;;11.85;;
67930;SDS011;63902;52.000;5.954;2023-10-09T05:03:27;24.23;;;12.02;;
67930;SDS011;63902;52.000;5.954;2023-10-09T05:04:28;28.42;;;12.43;;
67930;SDS011;63902;52.000;5.954;2023-10-09T05:05:28;20.95;;;11.35;;
67930;SDS011;63902;52.000;5.954;2023-10-09T05:06:29;19.58;;;10.65;;
67930;SDS011;63902;52.000;5.954;2023-10-09T05:07:29;22.65;;;10.98;;
67930;SDS011;63902;52.000;5.954;2023-10-09T05:08:30;24.42;;;12.43;;
67930;SDS011;63902;52.000;5.954;2023-10-09T05:09:30;20.80;;;11.45;;
67930;SDS011;63902;52.000;5.954;2023-10-09T05:10:31;25.35;;;11.65;;
67930;SDS011;63902;52.000;5.954;2023-10-09T05:11:33;18.02;;;11.18;;
67930;SDS011;63902;52.000;5.954;2023-10-09T05:12:35;26.25;;;11.73;;
67930;SDS011;63902;52.000;5.954;2023-10-09T05:13:35;22.25;;;11.32;;
67930;SDS011;63902;52.000;5.954;2023-10-09T05:14:36;23.33;;;11.00;;
67930;SDS011;63902;52.000;5.954;2023-10-09T05:15:37;21.33;;;11.70;;
67930;SDS011;63902;52.000;5.954;2023-10-09T05:16:37;22.70;;;11.63;;
67930;SDS011;63902;52.000;5.954;2023-10-09T05:17:38;20.70;;;11.57;;
67930;SDS011;63902;52.000;5.954;2023-10-09T05:18:39;23.13;;;12.23;;
67930;SDS011;63902;52.000;5.954;2023-10-09T05:19:39;27.67;;;11.48;;
67930;SDS011;63902;52.000;5.954;2023-10-09T05:20:40;25.92;;;12.13;;
67930;SDS011;63902;52.000;5.954;2023-10-09T05:21:40;20.33;;;10.85;;
67930;SDS011;63902;52.000;5.954;2023-10-09T05:22:41;21.95;;;11.57;;
67930;SDS011;63902;52.000;5.954;2023-10-09T05:23:41;22.30;;;11.52;;
67930;SDS011;63902;52.000;5.954;2023-10-09T05:24:42;23.67;;;11.43;;
67930;SDS011;63902;52.000;5.954;2023-10-09T05:25:44;19.83;;;10.82;;
67930;SDS011;63902;52.000;5.954;2023-10-09T05:26:46;19.48;;;10.90;;
67930;SDS011;63902;52.000;5.954;2023-10-09T05:27:47;22.67;;;12.10;;
67930;SDS011;63902;52.000;5.954;2023-10-09T05:28:48;25.55;;;11.63;;
67930;SDS011;63902;52.000;5.954;2023-10-09T05:29:48;19.73;;;11.30;;
67930;SDS011;63902;52.000;5.954;2023-10-09T05:30:49;19.00;;;11.40;;
67930;SDS011;63902;52.000;5.954;2023-10-09T05:31:49;27.08;;;12.13;;
67930;SDS011;63902;52.000;5.954;2023-10-09T05:32:51;19.25;;;11.57;;
67930;SDS011;63902;52.000;5.954;2023-10-09T05:33:52;20.88;;;11.27;;
67930;SDS011;63902;52.000;5.954;2023-10-09T05:34:53;19.35;;;11.98;;
67930;SDS011;63902;52.000;5.954;2023-10-09T05:35:53;22.00;;;11.05;;
67930;SDS011;63902;52.000;5.954;2023-10-09T05:36:54;21.70;;;11.65;;
67930;SDS011;63902;52.000;5.954;2023-10-09T05:37:54;20.85;;;11.75;;
67930;SDS011;63902;52.000;5.954;2023-10-09T05:38:55;24.60;;;12.15;;
67930;SDS011;63902;52.000;5.954;2023-10-09T05:39:55;20.25;;;11.57;;
67930;SDS011;63902;52.000;5.954;2023-10-09T05:40:56;22.25;;;11.63;;
67930;SDS011;63902;52.000;5.954;2023-10-09T05:41:58;18.70;;;11.15;;
67930;SDS011;63902;52.000;5.954;2023-10-09T05:42:59;21.02;;;12.00;;
67930;SDS011;63902;52.000;5.954;2023-10-09T05:43:59;33.50;;;11.85;;
67930;SDS011;63902;52.000;5.954;2023-10-09T05:45:00;23.38;;;11.57;;
67930;SDS011;63902;52.000;5.954;2023-10-09T05:46:00;25.60;;;11.60;;
67930;SDS011;63902;52.000;5.954;2023-10-09T05:47:01;17.98;;;10.50;;
67930;SDS011;63902;52.000;5.954;2023-10-09T05:48:02;20.17;;;11.05;;
67930;SDS011;63902;52.000;5.954;2023-10-09T05:49:03;18.63;;;11.32;;
67930;SDS011;63902;52.000;5.954;2023-10-09T05:50:04;21.23;;;11.32;;
67930;SDS011;63902;52.000;5.954;2023-10-09T05:51:05;21.13;;;11.27;;
67930;SDS011;63902;52.000;5.954;2023-10-09T05:52:05;22.95;;;12.32;;
67930;SDS011;63902;52.000;5.954;2023-10-09T05:53:06;16.80;;;11.05;;
67930;SDS011;63902;52.000;5.954;2023-10-09T05:54:06;24.60;;;12.23;;
67930;SDS011;63902;52.000;5.954;2023-10-09T05:55:07;18.33;;;11.63;;
67930;SDS011;63902;52.000;5.954;2023-10-09T05:56:08;24.25;;;12.90;;
67930;SDS011;63902;52.000;5.954;2023-10-09T05:57:10;22.48;;;12.02;;
67930;SDS011;63902;52.000;5.954;2023-10-09T05:58:10;23.92;;;11.82;;
67930;SDS011;63902;52.000;5.954;2023-10-09T05:59:11;21.75;;;11.77;;
67930;SDS011;63902;52.000;5.954;2023-10-09T06:00:12;20.80;;;10.52;;
67930;SDS011;63902;52.000;5.954;2023-10-09T06:01:13;24.13;;;11.75;;
67930;SDS011;63902;52.000;5.954;2023-10-09T06:02:14;21.52;;;11.52;;
67930;SDS011;63902;52.000;5.954;2023-10-09T06:03:14;23.17;;;11.75;;
67930;SDS011;63902;52.000;5.954;2023-10-09T06:04:15;26.02;;;11.60;;
67930;SDS011;63902;52.000;5.954;2023-10-09T06:05:15;25.67;;;11.52;;
67930;SDS011;63902;52.000;5.954;2023-10-09T06:06:16;22.55;;;11.68;;